createdAt,value
2017-12-21T00:02:02.924Z,4.6
2017-12-21T00:07:03.593Z,4.5
2017-12-21T00:12:02.822Z,4.5
2017-12-21T00:17:02.975Z,4.5
2017-12-21T00:22:03.571Z,4.4
2017-12-21T00:27:03.558Z,4.3
2017-12-21T00:32:03.689Z,4.3
2017-12-21T00:37:02.861Z,4.2
2017-12-21T00:42:03.019Z,4.3
2017-12-21T00:47:03.102Z,4.3
2017-12-21T00:52:02.804Z,4.3
2017-12-21T00:57:02.971Z,4.4
2017-12-21T01:02:03.061Z,4.6
2017-12-21T01:07:03.009Z,4.7
2017-12-21T01:12:03.238Z,4.7
2017-12-21T01:17:03.439Z,4.8
2017-12-21T01:22:03.073Z,4.8
2017-12-21T01:27:03.107Z,4.8
2017-12-21T01:32:03.120Z,4.7
2017-12-21T01:37:03.319Z,4.7
2017-12-21T01:42:03.318Z,4.8
2017-12-21T01:47:03.461Z,4.8
2017-12-21T01:52:03.324Z,4.6
2017-12-21T01:57:03.339Z,4.6
2017-12-21T02:02:03.552Z,4.6
2017-12-21T02:07:02.733Z,4.6
2017-12-21T02:12:03.035Z,4.6
2017-12-21T02:17:03.163Z,4.5
2017-12-21T02:22:03.493Z,4.5
2017-12-21T02:27:03.569Z,4.6
2017-12-21T02:32:03.578Z,4.5
2017-12-21T02:37:02.780Z,4.6
2017-12-21T02:42:02.818Z,4.6
2017-12-21T02:47:03.079Z,4.7
2017-12-21T02:52:02.856Z,4.7
2017-12-21T02:57:02.973Z,4.7
2017-12-21T03:02:03.038Z,4.6
2017-12-21T03:07:03.208Z,4.6
2017-12-21T03:12:03.444Z,4.5
2017-12-21T03:17:03.562Z,4.5
2017-12-21T03:22:03.157Z,4.6
2017-12-21T03:27:03.196Z,4.6
2017-12-21T03:32:03.344Z,4.6
2017-12-21T03:37:03.132Z,4.6
2017-12-21T03:42:03.152Z,4.6
2017-12-21T03:47:03.205Z,4.6
2017-12-21T03:52:03.291Z,4.6
2017-12-21T03:57:03.371Z,4.7
2017-12-21T04:02:03.456Z,4.6
2017-12-21T04:07:02.905Z,4.5
2017-12-21T04:12:03.155Z,4.6
2017-12-21T04:17:03.235Z,4.6
2017-12-21T04:22:03.313Z,4.6
2017-12-21T04:27:03.391Z,4.7
2017-12-21T04:32:03.446Z,4.7
2017-12-21T04:37:03.481Z,4.7
2017-12-21T04:42:02.682Z,4.8
2017-12-21T04:47:02.817Z,4.8
2017-12-21T04:52:02.960Z,4.9
2017-12-21T04:57:03.112Z,5.0
2017-12-21T05:02:03.226Z,4.9
2017-12-21T05:07:03.364Z,5.0
2017-12-21T05:12:03.525Z,4.9
2017-12-21T05:17:03.754Z,4.8
2017-12-21T05:22:02.883Z,4.8
2017-12-21T05:27:03.075Z,4.9
2017-12-21T05:32:03.188Z,4.9
2017-12-21T05:37:03.190Z,5.0
2017-12-21T05:42:03.183Z,4.9
2017-12-21T05:47:03.343Z,4.9
2017-12-21T05:52:03.312Z,4.9
2017-12-21T05:57:03.351Z,4.9
2017-12-21T06:02:03.364Z,4.9
2017-12-21T06:07:03.412Z,5.0
2017-12-21T06:12:02.784Z,4.9
2017-12-21T06:17:03.043Z,4.9
2017-12-21T06:22:03.083Z,4.9
2017-12-21T06:27:03.222Z,4.9
2017-12-21T06:32:03.390Z,4.9
2017-12-21T06:37:03.330Z,4.9
2017-12-21T06:42:03.562Z,4.9
2017-12-21T06:47:13.774Z,4.9
2017-12-21T06:52:03.239Z,4.8
2017-12-21T06:57:03.547Z,4.8
2017-12-21T07:02:13.416Z,4.7
2017-12-21T07:07:03.183Z,4.7
2017-12-21T07:12:02.810Z,4.6
2017-12-21T07:17:14.113Z,4.6
2017-12-21T07:22:02.685Z,4.7
2017-12-21T07:27:02.920Z,4.7
2017-12-21T07:32:17.801Z,4.8
2017-12-21T07:37:03.318Z,4.9
2017-12-21T07:42:03.494Z,4.8
2017-12-21T07:47:12.399Z,5.1
2017-12-21T07:52:03.009Z,5.1
2017-12-21T07:57:03.529Z,5.2
2017-12-21T08:02:13.234Z,5.3
2017-12-21T08:07:03.221Z,5.6
2017-12-21T08:12:03.501Z,5.6
2017-12-21T08:17:15.885Z,5.8
2017-12-21T08:22:02.881Z,6.0
2017-12-21T08:27:03.159Z,6.0
2017-12-21T08:32:13.772Z,5.9
2017-12-21T08:37:03.599Z,5.8
2017-12-21T08:42:02.737Z,5.8
2017-12-21T08:47:10.324Z,5.9
2017-12-21T08:52:03.449Z,5.9
2017-12-21T08:57:03.590Z,6.0
2017-12-21T09:02:04.722Z,6.1
2017-12-21T09:07:03.550Z,6.1
2017-12-21T09:12:05.323Z,6.2
2017-12-21T09:17:08.011Z,6.2
2017-12-21T09:22:03.330Z,6.4
2017-12-21T09:27:03.851Z,6.4
2017-12-21T09:32:06.803Z,6.4
2017-12-21T09:37:03.175Z,6.4
2017-12-21T09:42:05.976Z,6.4
2017-12-21T09:47:10.947Z,6.4
2017-12-21T09:52:03.009Z,6.5
2017-12-21T09:57:03.120Z,6.9
2017-12-21T10:02:29.974Z,6.9
2017-12-21T10:07:03.363Z,7.3
2017-12-21T10:12:03.641Z,8.1
2017-12-21T10:17:13.579Z,8.0
2017-12-21T10:22:03.274Z,8.4
2017-12-21T10:27:03.344Z,8.7
2017-12-21T10:32:13.821Z,8.8
2017-12-21T10:37:02.855Z,9.0
2017-12-21T10:42:02.963Z,8.9
2017-12-21T10:47:13.376Z,8.8
2017-12-21T10:52:03.411Z,8.8
2017-12-21T10:57:03.598Z,8.8
2017-12-21T11:02:13.328Z,8.7
2017-12-21T11:07:03.056Z,8.7
2017-12-21T11:12:03.388Z,8.6
2017-12-21T11:17:13.924Z,8.6
2017-12-21T11:22:02.787Z,8.6
2017-12-21T11:27:02.987Z,8.7
2017-12-21T11:32:13.769Z,8.8
2017-12-21T11:37:03.524Z,8.8
2017-12-21T11:42:03.516Z,8.7
2017-12-21T11:47:13.110Z,8.8
2017-12-21T11:52:02.858Z,8.7
2017-12-21T11:57:03.211Z,8.9
2017-12-21T12:02:11.561Z,8.8
2017-12-21T12:07:03.056Z,8.8
2017-12-21T12:12:03.379Z,8.8
2017-12-21T12:17:13.965Z,8.8
2017-12-21T12:22:02.715Z,9.0
2017-12-21T12:27:02.943Z,9.0
2017-12-21T12:32:13.587Z,9.1
2017-12-21T12:37:03.249Z,9.3
2017-12-21T12:42:03.469Z,9.3
2017-12-21T12:47:17.603Z,9.3
2017-12-21T12:52:03.408Z,9.2
2017-12-21T12:57:03.615Z,9.2
2017-12-21T13:02:13.192Z,9.0
2017-12-21T13:07:03.293Z,9.0
2017-12-21T13:12:03.563Z,8.9
2017-12-21T13:17:13.073Z,8.6
2017-12-21T13:22:03.122Z,8.6
2017-12-21T13:27:03.378Z,8.4
2017-12-21T13:32:13.831Z,8.4
2017-12-21T13:37:02.855Z,8.4
2017-12-21T13:42:03.052Z,8.3
2017-12-21T13:47:13.683Z,8.3
2017-12-21T13:52:03.517Z,8.3
2017-12-21T13:57:02.647Z,8.3
2017-12-21T14:02:13.287Z,8.2
2017-12-21T14:07:03.571Z,8.2
2017-12-21T14:12:02.952Z,8.3
2017-12-21T14:17:13.190Z,8.3
2017-12-21T14:22:02.979Z,8.3
2017-12-21T14:27:03.181Z,8.2
2017-12-21T14:32:13.734Z,8.2
2017-12-21T14:37:03.089Z,8.3
2017-12-21T14:42:03.257Z,8.3
2017-12-21T14:47:13.565Z,8.2
2017-12-21T14:52:02.644Z,8.2
2017-12-21T14:57:02.868Z,8.2
2017-12-21T15:02:12.780Z,8.2
2017-12-21T15:07:02.775Z,8.2
2017-12-21T15:12:03.345Z,8.2
2017-12-21T15:17:14.204Z,8.2
2017-12-21T15:22:03.431Z,8.1
2017-12-21T15:27:02.842Z,8.1
2017-12-21T15:32:13.788Z,8.1
2017-12-21T15:37:03.617Z,8.0
2017-12-21T15:42:03.545Z,7.9
2017-12-21T15:47:13.189Z,7.8
2017-12-21T15:52:03.457Z,7.8
2017-12-21T15:57:02.860Z,7.7
2017-12-21T16:02:13.190Z,7.7
2017-12-21T16:07:03.455Z,7.7
2017-12-21T16:12:02.809Z,7.7
2017-12-21T16:17:04.258Z,7.6
2017-12-21T16:22:03.150Z,7.7
2017-12-21T16:27:03.335Z,7.6
2017-12-21T16:32:05.809Z,7.5
2017-12-21T16:37:03.530Z,7.5
2017-12-21T16:42:03.618Z,7.5
2017-12-21T16:47:04.731Z,7.5
2017-12-21T16:52:02.945Z,7.5
2017-12-21T16:57:03.092Z,7.5
2017-12-21T17:02:04.830Z,7.5
2017-12-21T17:07:03.561Z,7.5
2017-12-21T17:12:02.852Z,7.5
2017-12-21T17:17:03.925Z,7.5
2017-12-21T17:22:03.228Z,7.5
2017-12-21T17:27:03.181Z,7.5
2017-12-21T17:32:06.325Z,7.4
2017-12-21T17:37:03.562Z,7.5
2017-12-21T17:42:02.746Z,7.5
2017-12-21T17:47:05.624Z,7.5
2017-12-21T17:52:03.157Z,7.6
2017-12-21T17:57:03.152Z,7.6
2017-12-21T18:02:11.951Z,7.6
2017-12-21T18:07:03.503Z,7.6
2017-12-21T18:12:02.932Z,7.5
2017-12-21T18:17:05.206Z,7.5
2017-12-21T18:22:03.180Z,7.6
2017-12-21T18:27:03.330Z,7.6
2017-12-21T18:32:03.457Z,7.6
2017-12-21T18:37:03.405Z,7.5
2017-12-21T18:42:03.540Z,7.6
2017-12-21T18:47:06.448Z,7.5
2017-12-21T18:52:02.666Z,7.5
2017-12-21T18:57:02.832Z,7.5
2017-12-21T19:02:05.217Z,7.3
2017-12-21T19:07:03.197Z,7.3
2017-12-21T19:12:03.334Z,7.3
2017-12-21T19:17:05.459Z,7.4
2017-12-21T19:22:03.442Z,7.4
2017-12-21T19:27:03.478Z,7.4
2017-12-21T19:32:03.586Z,7.3
2017-12-21T19:37:02.792Z,7.2
2017-12-21T19:42:02.932Z,7.3
2017-12-21T19:47:03.096Z,7.3
2017-12-21T19:52:03.186Z,7.2
2017-12-21T19:57:03.242Z,7.2
2017-12-21T20:02:03.428Z,7.2
2017-12-21T20:07:03.590Z,7.2
2017-12-21T20:12:02.907Z,7.1
2017-12-21T20:17:03.269Z,7.1
2017-12-21T20:22:03.259Z,7.1
2017-12-21T20:27:03.241Z,7.1
2017-12-21T20:32:03.375Z,7.2
2017-12-21T20:37:03.466Z,7.2
2017-12-21T20:42:03.539Z,7.1
2017-12-21T20:47:03.728Z,7.1
2017-12-21T20:52:02.787Z,7.0
2017-12-21T20:57:02.914Z,7.0
2017-12-21T21:02:03.083Z,6.9
2017-12-21T21:07:03.262Z,6.9
2017-12-21T21:12:03.521Z,6.9
2017-12-21T21:17:03.610Z,6.8
2017-12-21T21:22:02.755Z,6.8
2017-12-21T21:27:03.003Z,6.8
2017-12-21T21:32:03.151Z,6.8
2017-12-21T21:37:03.155Z,6.8
2017-12-21T21:42:03.137Z,6.8
2017-12-21T21:47:03.412Z,6.8
2017-12-21T21:52:03.368Z,7.0
2017-12-21T21:57:03.433Z,7.0
2017-12-21T22:02:03.640Z,7.1
2017-12-21T22:07:02.884Z,7.2
2017-12-21T22:12:03.229Z,7.2
2017-12-21T22:17:03.316Z,7.2
2017-12-21T22:22:03.445Z,7.3
2017-12-21T22:27:03.473Z,7.2
2017-12-21T22:32:03.588Z,7.3
2017-12-21T22:37:02.794Z,7.3
2017-12-21T22:42:02.912Z,7.3
2017-12-21T22:47:03.086Z,7.3
2017-12-21T22:52:03.063Z,7.3
2017-12-21T22:57:03.235Z,7.3
2017-12-21T23:02:03.358Z,7.2
2017-12-21T23:07:03.536Z,7.2
2017-12-21T23:12:02.791Z,7.2
2017-12-21T23:22:03.431Z,7.2
2017-12-21T23:27:03.108Z,7.2
2017-12-21T23:32:03.184Z,7.2
2017-12-21T23:37:03.352Z,7.2
2017-12-21T23:42:03.281Z,7.1
2017-12-21T23:47:03.458Z,7.1
2017-12-21T23:52:02.697Z,7.1
2017-12-21T23:57:02.890Z,7.1
